createdAt,value
2019-05-15T00:00:18.862Z,99.90
2019-05-15T00:02:48.179Z,99.90
2019-05-15T00:05:18.659Z,99.90
2019-05-15T00:07:48.011Z,99.90
2019-05-15T00:10:15.338Z,99.90
2019-05-15T00:12:43.277Z,99.90
2019-05-15T00:15:11.186Z,99.90
2019-05-15T00:17:39.657Z,99.90
2019-05-15T00:20:09.624Z,99.90
2019-05-15T00:22:38.808Z,99.90
2019-05-15T00:25:09.003Z,99.90
2019-05-15T00:27:38.615Z,99.90
2019-05-15T00:30:08.641Z,99.90
2019-05-15T00:32:39.002Z,99.90
2019-05-15T00:35:09.116Z,99.90
2019-05-15T00:37:38.700Z,99.90
2019-05-15T00:40:08.535Z,99.90
2019-05-15T00:42:38.106Z,99.90
2019-05-15T00:45:09.122Z,99.90
2019-05-15T00:47:36.462Z,99.90
2019-05-15T00:50:05.728Z,99.90
2019-05-15T00:52:33.680Z,99.90
2019-05-15T00:55:01.589Z,99.90
2019-05-15T00:57:29.532Z,99.90
2019-05-15T00:59:59.009Z,99.90
2019-05-15T01:02:28.664Z,99.90
2019-05-15T01:04:58.479Z,99.90
2019-05-15T01:07:28.083Z,99.90
2019-05-15T01:09:57.813Z,99.90
2019-05-15T01:12:25.413Z,99.90
2019-05-15T01:14:53.307Z,99.90
2019-05-15T01:17:21.246Z,99.90
2019-05-15T01:19:49.104Z,99.90
2019-05-15T01:22:19.331Z,99.90
2019-05-15T01:24:48.566Z,99.90
2019-05-15T01:27:18.268Z,99.90
2019-05-15T01:29:45.691Z,99.90
2019-05-15T01:32:13.646Z,99.90
2019-05-15T01:34:41.555Z,99.90
2019-05-15T01:37:09.442Z,99.90
2019-05-15T01:39:38.546Z,99.90
2019-05-15T01:42:08.364Z,99.90
2019-05-15T01:44:36.083Z,99.90
2019-05-15T01:47:04.004Z,99.90
2019-05-15T01:49:31.835Z,99.90
2019-05-15T01:51:59.780Z,99.90
2019-05-15T01:54:28.953Z,99.90
2019-05-15T01:56:58.758Z,99.90
2019-05-15T01:59:28.411Z,99.90
2019-05-15T02:01:56.038Z,99.90
2019-05-15T02:04:23.880Z,99.90
2019-05-15T02:06:51.945Z,99.90
2019-05-15T02:09:19.865Z,99.90
2019-05-15T02:11:48.902Z,99.90
2019-05-15T02:14:18.943Z,99.90
2019-05-15T02:16:48.392Z,99.90
2019-05-15T02:19:16.178Z,99.90
2019-05-15T02:21:44.024Z,99.90
2019-05-15T02:24:11.981Z,99.90
2019-05-15T02:26:39.887Z,99.90
2019-05-15T02:29:10.058Z,99.90
2019-05-15T02:31:39.136Z,99.90
2019-05-15T02:34:09.952Z,99.90
2019-05-15T02:36:39.747Z,99.90
2019-05-15T02:39:08.850Z,99.90
2019-05-15T02:41:39.403Z,99.90
2019-05-15T02:44:06.083Z,99.90
2019-05-15T02:46:33.991Z,99.90
2019-05-15T02:49:01.918Z,99.90
2019-05-15T02:51:30.130Z,99.90
2019-05-15T02:53:58.685Z,99.90
2019-05-15T02:56:29.301Z,99.90
2019-05-15T02:58:56.187Z,99.90
2019-05-15T03:01:24.055Z,99.90
2019-05-15T03:03:51.967Z,99.90
2019-05-15T03:06:19.922Z,99.90
2019-05-15T03:08:49.562Z,99.90
2019-05-15T03:11:18.940Z,99.90
2019-05-15T03:13:50.263Z,99.90
2019-05-15T03:16:19.382Z,99.90
2019-05-15T03:18:46.255Z,99.90
2019-05-15T03:21:14.163Z,99.90
2019-05-15T03:23:42.032Z,99.90
2019-05-15T03:26:09.961Z,99.90
2019-05-15T03:28:39.237Z,99.90
2019-05-15T03:31:30.490Z,99.90
2019-05-15T03:33:44.854Z,99.90
2019-05-15T03:36:12.484Z,99.90
2019-05-15T03:38:39.091Z,99.90
2019-05-15T03:41:06.207Z,99.90
2019-05-15T03:43:34.222Z,99.90
2019-05-15T03:46:02.160Z,99.90
2019-05-15T03:48:30.043Z,99.90
2019-05-15T03:50:59.758Z,99.90
2019-05-15T03:53:29.986Z,99.90
2019-05-15T03:55:58.986Z,99.90
2019-05-15T03:58:28.875Z,99.90
2019-05-15T04:00:59.864Z,99.90
2019-05-15T04:03:29.640Z,99.90
2019-05-15T04:05:55.430Z,99.90
2019-05-15T04:08:23.347Z,99.90
2019-05-15T04:10:51.280Z,99.90
2019-05-15T04:13:19.857Z,99.90
2019-05-15T04:15:50.215Z,99.90
2019-05-15T04:18:19.888Z,99.90
2019-05-15T04:20:49.345Z,99.90
2019-05-15T04:23:19.105Z,99.90
2019-05-15T04:25:49.381Z,99.90
2019-05-15T04:28:19.255Z,99.90
2019-05-15T04:30:49.481Z,99.90
2019-05-15T04:33:19.724Z,99.90
2019-05-15T04:35:49.511Z,99.90
2019-05-15T04:38:16.055Z,99.90
2019-05-15T04:40:44.030Z,99.90
2019-05-15T04:43:11.905Z,99.90
2019-05-15T04:45:39.986Z,99.90
2019-05-15T04:48:10.060Z,99.90
2019-05-15T04:50:39.867Z,99.90
2019-05-15T04:53:10.639Z,99.90
2019-05-15T04:55:39.908Z,99.90
2019-05-15T04:58:06.068Z,99.90
2019-05-15T05:00:39.984Z,99.90
2019-05-15T05:03:10.009Z,99.90
2019-05-15T05:05:38.848Z,99.90
2019-05-15T05:08:09.332Z,99.90
2019-05-15T05:10:39.381Z,99.90
2019-05-15T05:13:08.789Z,99.90
2019-05-15T05:15:42.703Z,99.90
2019-05-15T05:18:10.628Z,99.90
2019-05-15T05:20:38.544Z,99.90
2019-05-15T05:23:08.514Z,99.90
2019-05-15T05:25:38.655Z,99.90
2019-05-15T05:28:05.645Z,99.90
2019-05-15T05:30:33.593Z,99.90
2019-05-15T05:33:01.502Z,99.90
2019-05-15T05:35:29.455Z,99.90
2019-05-15T05:37:58.305Z,99.90
2019-05-15T05:40:26.441Z,99.90
2019-05-15T05:42:54.351Z,99.90
2019-05-15T05:45:22.278Z,99.90
2019-05-15T05:47:50.211Z,99.90
2019-05-15T05:50:38.346Z,99.90
2019-05-15T05:53:05.511Z,99.90
2019-05-15T05:55:33.468Z,99.90
2019-05-15T05:58:01.374Z,99.90
2019-05-15T06:00:33.503Z,99.90
2019-05-15T06:03:01.374Z,99.90
2019-05-15T06:05:29.238Z,99.90
2019-05-15T06:07:58.200Z,99.90
2019-05-15T06:10:26.210Z,99.90
2019-05-15T06:12:54.115Z,99.90
2019-05-15T06:15:22.062Z,99.90
2019-05-15T06:17:49.940Z,99.90
2019-05-15T06:20:18.564Z,99.90
2019-05-15T06:22:47.922Z,99.90
2019-05-15T06:25:19.536Z,99.90
2019-05-15T06:27:48.029Z,99.90
2019-05-15T06:30:26.007Z,99.90
2019-05-15T06:32:59.882Z,99.90
2019-05-15T06:35:15.820Z,99.90
2019-05-15T06:37:43.736Z,99.90
2019-05-15T06:40:11.694Z,99.90
2019-05-15T06:42:39.773Z,99.90
2019-05-15T06:45:08.609Z,99.90
2019-05-15T06:47:36.498Z,99.90
2019-05-15T06:50:08.840Z,99.90
2019-05-15T06:52:38.077Z,99.90
2019-05-15T06:55:08.827Z,99.90
2019-05-15T06:57:36.279Z,99.90
2019-05-15T07:00:08.452Z,99.90
2019-05-15T07:02:38.197Z,99.90
2019-05-15T07:05:07.847Z,99.90
2019-05-15T07:07:38.174Z,99.90
2019-05-15T07:10:08.706Z,99.90
2019-05-15T07:12:35.976Z,99.90
2019-05-15T07:15:05.634Z,99.90
2019-05-15T07:17:33.488Z,99.90
2019-05-15T07:20:01.507Z,99.90
2019-05-15T07:22:29.398Z,99.90
2019-05-15T07:24:58.180Z,99.90
2019-05-15T07:27:28.371Z,99.90
2019-05-15T07:29:58.190Z,99.90
2019-05-15T07:32:25.298Z,99.90
2019-05-15T07:34:53.235Z,99.90
2019-05-15T07:37:21.159Z,99.90
2019-05-15T07:39:49.036Z,99.90
2019-05-15T07:42:18.517Z,99.90
2019-05-15T07:44:48.189Z,99.90
2019-05-15T07:47:18.925Z,99.90
2019-05-15T07:49:49.012Z,99.90
2019-05-15T07:52:15.877Z,99.90
2019-05-15T07:54:44.111Z,99.90
2019-05-15T07:57:12.268Z,99.90
2019-05-15T07:59:40.554Z,99.90
2019-05-15T08:02:08.558Z,99.90
2019-05-15T08:04:38.046Z,99.90
2019-05-15T08:07:09.201Z,99.90
2019-05-15T08:09:39.056Z,99.90
2019-05-15T08:12:08.291Z,99.90
2019-05-15T08:14:38.823Z,99.90
2019-05-15T08:17:08.516Z,99.90
2019-05-15T08:19:38.334Z,99.90
2019-05-15T08:22:08.745Z,99.90
2019-05-15T08:24:35.649Z,99.90
2019-05-15T08:27:03.613Z,99.90
2019-05-15T08:29:31.747Z,99.90
2019-05-15T08:31:59.821Z,99.90
2019-05-15T08:34:28.278Z,99.90
2019-05-15T08:36:58.758Z,99.90
2019-05-15T08:39:28.346Z,99.90
2019-05-15T08:41:55.841Z,99.90
2019-05-15T08:44:23.752Z,99.90
2019-05-15T08:46:51.694Z,99.90
2019-05-15T08:49:22.599Z,99.90
2019-05-15T08:51:50.493Z,99.90
2019-05-15T08:54:18.563Z,99.90
2019-05-15T08:56:48.465Z,99.90
2019-05-15T08:59:18.586Z,99.90
2019-05-15T09:01:45.607Z,99.90
2019-05-15T09:04:26.757Z,99.90
2019-05-15T09:06:43.054Z,99.90
2019-05-15T09:09:10.991Z,99.90
2019-05-15T09:11:39.441Z,99.90
2019-05-15T09:14:08.166Z,99.90
2019-05-15T09:16:38.546Z,99.90
2019-05-15T09:19:08.213Z,99.90
2019-05-15T09:21:35.530Z,99.90
2019-05-15T09:24:03.463Z,99.90
2019-05-15T09:26:31.486Z,99.90
2019-05-15T09:28:59.383Z,99.90
2019-05-15T09:31:28.998Z,99.90
2019-05-15T09:33:58.635Z,99.90
2019-05-15T09:36:28.909Z,99.90
2019-05-15T09:38:58.331Z,99.90
2019-05-15T09:41:25.759Z,99.90
2019-05-15T09:43:53.715Z,99.90
2019-05-15T09:46:21.649Z,99.90
2019-05-15T09:48:51.846Z,99.90
2019-05-15T09:51:19.155Z,99.90
2019-05-15T09:53:48.450Z,99.90
2019-05-15T09:56:18.508Z,99.40
2019-05-15T09:58:48.609Z,99.90
2019-05-15T10:01:15.654Z,99.90
2019-05-15T10:03:44.601Z,99.90
2019-05-15T10:06:12.640Z,99.50
2019-05-15T10:08:40.582Z,99.90
2019-05-15T10:11:09.114Z,99.90
2019-05-15T10:13:38.419Z,99.90
2019-05-15T10:16:08.254Z,99.90
2019-05-15T10:18:38.677Z,97.70
2019-05-15T10:21:05.590Z,98.50
2019-05-15T10:23:33.494Z,99.70
2019-05-15T10:26:01.464Z,96.10
2019-05-15T10:28:29.602Z,97.30
2019-05-15T10:31:00.105Z,98.40
2019-05-15T10:33:29.444Z,98.10
2019-05-15T10:35:58.907Z,98.40
2019-05-15T10:38:28.403Z,95.90
2019-05-15T10:41:08.476Z,96.70
2019-05-15T10:43:25.310Z,96.00
2019-05-15T10:45:54.831Z,95.80
2019-05-15T10:48:22.792Z,97.00
2019-05-15T10:50:50.741Z,99.40
2019-05-15T10:53:19.145Z,98.10
2019-05-15T10:55:49.564Z,96.50
2019-05-15T10:58:18.350Z,95.60
2019-05-15T11:00:49.025Z,95.20
2019-05-15T11:03:15.744Z,96.50
2019-05-15T11:05:45.729Z,96.50
2019-05-15T11:08:13.171Z,94.80
2019-05-15T11:10:41.865Z,95.80
2019-05-15T11:13:10.639Z,95.30
2019-05-15T11:15:42.541Z,94.90
2019-05-15T11:18:09.798Z,96.20
2019-05-15T11:20:40.948Z,95.80
2019-05-15T11:23:09.270Z,94.80
2019-05-15T11:25:37.815Z,96.40
2019-05-15T11:28:08.270Z,94.30
2019-05-15T11:30:39.004Z,93.30
2019-05-15T11:33:06.309Z,93.00
2019-05-15T11:35:35.062Z,92.90
2019-05-15T11:38:04.639Z,94.90
2019-05-15T11:40:35.890Z,92.90
2019-05-15T11:43:04.695Z,92.80
2019-05-15T11:45:32.893Z,93.90
2019-05-15T11:48:01.761Z,94.70
2019-05-15T11:50:30.444Z,93.60
2019-05-15T11:52:59.193Z,95.60
2019-05-15T11:55:32.339Z,94.60
2019-05-15T11:58:00.637Z,95.70
2019-05-15T12:00:30.328Z,92.90
2019-05-15T12:02:59.083Z,94.50
2019-05-15T12:05:28.802Z,94.70
2019-05-15T12:07:57.908Z,95.80
2019-05-15T12:10:28.804Z,96.40
2019-05-15T12:13:01.976Z,95.40
2019-05-15T12:15:29.924Z,95.80
2019-05-15T12:18:00.428Z,96.50
2019-05-15T12:20:28.660Z,95.90
2019-05-15T12:22:59.212Z,97.20
2019-05-15T12:25:31.452Z,98.00
2019-05-15T12:27:55.896Z,94.30
2019-05-15T12:30:23.797Z,95.50
2019-05-15T12:32:51.767Z,96.10
2019-05-15T12:35:20.525Z,94.90
2019-05-15T12:37:48.637Z,93.40
2019-05-15T13:00:13.761Z,92.50
2019-05-15T13:02:41.690Z,91.50
2019-05-15T13:05:09.724Z,92.60
2019-05-15T13:07:38.009Z,93.60
2019-05-15T13:10:08.687Z,92.60
2019-05-15T13:12:47.581Z,93.60
2019-05-15T13:15:08.243Z,92.60
2019-05-15T13:17:38.585Z,93.30
2019-05-15T13:20:06.047Z,93.80
2019-05-15T13:22:36.323Z,94.40
2019-05-15T13:25:04.993Z,94.90
2019-05-15T13:27:33.021Z,94.90
2019-05-15T13:30:00.947Z,93.20
2019-05-15T13:32:28.883Z,93.20
2019-05-15T13:34:59.497Z,92.00
2019-05-15T13:37:28.139Z,92.00
2019-05-15T13:39:58.679Z,93.30
2019-05-15T13:42:28.070Z,93.20
2019-05-15T13:44:58.474Z,92.60
2019-05-15T13:47:25.604Z,94.50
2019-05-15T13:49:53.700Z,93.00
2019-05-15T13:52:21.494Z,93.60
2019-05-15T13:54:49.459Z,92.70
2019-05-15T13:57:18.071Z,94.50
2019-05-15T13:59:48.383Z,91.50
2019-05-15T14:02:15.975Z,90.00
2019-05-15T14:04:43.919Z,90.90
2019-05-15T14:07:20.474Z,92.00
2019-05-15T14:09:48.737Z,92.40
2019-05-15T14:12:18.285Z,92.20
2019-05-15T14:14:48.580Z,92.00
2019-05-15T14:17:16.081Z,92.90
2019-05-15T14:19:44.024Z,90.20
2019-05-15T14:22:12.011Z,91.50
2019-05-15T14:24:39.919Z,90.30
2019-05-15T14:27:21.206Z,89.70
2019-05-15T14:29:49.242Z,89.00
2019-05-15T14:32:32.794Z,91.30
2019-05-15T14:34:50.466Z,91.50
2019-05-15T14:37:32.795Z,92.00
2019-05-15T14:40:00.810Z,91.90
2019-05-15T14:42:30.791Z,91.90
2019-05-15T14:45:00.703Z,92.40
2019-05-15T14:47:29.490Z,92.10
2019-05-15T14:50:01.027Z,93.40
2019-05-15T14:52:29.213Z,93.40
2019-05-15T14:55:00.431Z,91.70
2019-05-15T14:57:28.926Z,91.70
2019-05-15T14:59:58.031Z,91.80
2019-05-15T15:02:26.157Z,92.00
2019-05-15T15:04:54.225Z,92.20
2019-05-15T15:07:24.933Z,92.30
2019-05-15T15:09:52.841Z,92.50
2019-05-15T15:12:20.993Z,92.70
2019-05-15T15:14:48.925Z,92.90
2019-05-15T15:17:19.569Z,93.30
2019-05-15T15:19:51.631Z,93.10
2019-05-15T15:22:23.886Z,92.40
2019-05-15T15:24:51.818Z,91.90
2019-05-15T15:27:19.782Z,92.00
2019-05-15T15:29:48.267Z,93.00
2019-05-15T15:32:16.582Z,93.50
2019-05-15T15:34:44.552Z,93.30
2019-05-15T15:37:12.531Z,93.70
2019-05-15T15:39:40.523Z,93.60
2019-05-15T15:42:08.855Z,94.10
2019-05-15T15:44:38.023Z,93.80
2019-05-15T15:47:08.508Z,94.10
2019-05-15T15:49:35.786Z,93.00
2019-05-15T15:52:08.764Z,93.40
2019-05-15T15:54:39.846Z,94.10
2019-05-15T15:57:19.189Z,94.20
2019-05-15T15:59:49.154Z,94.20
2019-05-15T16:02:18.670Z,93.90
2019-05-15T16:04:48.412Z,93.80
2019-05-15T16:07:17.825Z,93.40
2019-05-15T16:09:48.168Z,92.50
2019-05-15T16:12:15.631Z,93.40
2019-05-15T16:14:50.837Z,93.80
2019-05-15T16:17:18.881Z,94.90
2019-05-15T16:19:49.171Z,94.40
2019-05-15T16:22:19.001Z,93.80
2019-05-15T16:24:49.150Z,93.20
2019-05-15T16:30:21.031Z,92.40
2019-05-15T16:32:49.370Z,90.40
2019-05-15T16:35:25.838Z,90.20
2019-05-15T16:37:53.791Z,88.40
2019-05-15T17:01:11.799Z,85.70
2019-05-15T17:03:39.717Z,86.10
2019-05-15T17:06:09.454Z,84.00
2019-05-15T17:08:37.889Z,80.80
2019-05-15T17:11:25.532Z,80.90
2019-05-15T17:13:53.471Z,81.40
2019-05-15T17:16:21.499Z,80.90
2019-05-15T17:18:49.427Z,80.70
2019-05-15T17:21:32.808Z,79.80
2019-05-15T17:24:00.792Z,78.60
2019-05-15T17:26:37.240Z,76.60
2019-05-15T17:29:05.260Z,78.00
2019-05-15T17:31:33.342Z,78.90
2019-05-15T17:34:01.621Z,79.60
2019-05-15T17:36:32.074Z,83.20
2019-05-15T17:38:59.509Z,82.70
2019-05-15T17:41:28.612Z,82.50
2019-05-15T17:43:57.993Z,83.30
2019-05-15T17:46:29.318Z,82.40
2019-05-15T17:49:07.041Z,84.60
2019-05-15T17:51:28.473Z,85.30
2019-05-15T17:53:58.256Z,86.50
2019-05-15T17:56:30.027Z,87.30
2019-05-15T17:58:58.287Z,89.40
2019-05-15T18:01:28.240Z,90.00
2019-05-15T18:03:59.416Z,90.60
2019-05-15T18:06:28.899Z,91.20
2019-05-15T18:08:59.276Z,91.40
2019-05-15T18:11:27.865Z,92.20
2019-05-15T18:14:19.990Z,92.50
2019-05-15T18:16:50.754Z,92.90
2019-05-15T18:22:19.646Z,93.20
2019-05-15T18:24:48.545Z,93.50
2019-05-15T18:27:18.529Z,93.90
2019-05-15T18:29:48.058Z,94.30
2019-05-15T18:32:18.906Z,94.40
2019-05-15T18:34:48.844Z,93.80
2019-05-15T18:37:19.130Z,94.60
2019-05-15T18:39:48.286Z,94.30
2019-05-15T18:42:18.592Z,93.90
2019-05-15T18:44:59.420Z,94.50
2019-05-15T18:47:28.003Z,94.60
2019-05-15T18:50:05.163Z,94.70
2019-05-15T18:52:28.725Z,94.70
2019-05-15T18:55:04.025Z,94.40
2019-05-15T18:57:32.007Z,94.80
2019-05-15T19:00:12.450Z,94.40
2019-05-15T19:02:40.405Z,95.00
2019-05-15T19:05:08.836Z,95.50
2019-05-15T19:07:38.266Z,95.00
2019-05-15T19:10:18.678Z,95.50
2019-05-15T19:12:48.441Z,95.30
2019-05-15T19:15:17.855Z,95.30
2019-05-15T19:17:47.486Z,95.70
2019-05-15T19:20:18.970Z,95.60
2019-05-15T19:23:07.940Z,96.40
2019-05-15T19:25:35.588Z,96.70
2019-05-15T19:28:03.628Z,97.00
2019-05-15T19:30:31.585Z,97.10
2019-05-15T19:33:01.068Z,97.50
2019-05-15T19:35:29.120Z,97.60
2019-05-15T19:37:58.557Z,97.40
2019-05-15T19:40:28.324Z,97.70
2019-05-15T19:42:59.010Z,96.70
2019-05-15T19:45:28.138Z,96.30
2019-05-15T19:47:58.409Z,95.80
2019-05-15T19:50:25.668Z,96.20
2019-05-15T19:52:58.835Z,96.00
2019-05-15T19:55:26.383Z,95.40
2019-05-15T20:00:58.822Z,94.70
2019-05-15T20:03:28.339Z,95.00
2019-05-15T20:05:57.745Z,94.80
2019-05-15T20:08:27.703Z,94.90
2019-05-15T20:10:59.692Z,94.50
2019-05-15T20:13:29.032Z,95.00
2019-05-15T20:16:09.503Z,94.30
2019-05-15T20:18:38.593Z,94.50
2019-05-15T20:21:08.878Z,94.90
2019-05-15T20:23:38.228Z,95.20
2019-05-15T20:26:09.430Z,95.50
2019-05-15T20:28:39.175Z,95.40
2019-05-15T20:31:07.950Z,95.90
2019-05-15T20:33:37.844Z,96.40
2019-05-15T20:36:38.869Z,97.00
2019-05-15T20:39:08.221Z,97.50
2019-05-15T20:41:46.017Z,97.60
2019-05-15T20:44:13.944Z,97.70
2019-05-15T20:46:50.537Z,97.80
2019-05-15T20:49:17.932Z,97.70
2019-05-15T20:52:02.367Z,97.90
2019-05-15T20:54:30.436Z,97.60
2019-05-15T20:56:59.539Z,97.40
2019-05-15T20:59:27.583Z,97.60
2019-05-15T21:01:55.543Z,97.50
2019-05-15T21:04:24.475Z,97.60
2019-05-15T21:06:53.299Z,97.50
2019-05-15T21:09:21.273Z,97.50
2019-05-15T21:11:49.222Z,98.00
2019-05-15T21:14:17.275Z,98.00
2019-05-15T21:16:45.343Z,98.30
2019-05-15T21:19:18.790Z,97.80
2019-05-15T21:21:47.992Z,97.20
2019-05-15T21:27:32.764Z,97.80
2019-05-15T21:29:59.230Z,97.50
2019-05-15T21:32:31.365Z,97.00
2019-05-15T21:34:59.309Z,97.40
2019-05-15T21:37:48.613Z,97.60
2019-05-15T21:40:17.400Z,98.10
2019-05-15T21:42:45.610Z,98.30
2019-05-15T21:45:18.289Z,98.40
2019-05-15T21:47:46.487Z,98.20
2019-05-15T21:50:19.421Z,98.50
2019-05-15T21:52:49.508Z,99.10
2019-05-15T21:55:18.752Z,98.40
2019-05-15T21:57:47.151Z,98.20
2019-05-15T22:00:28.903Z,97.50
2019-05-15T22:02:58.464Z,97.60
2019-05-15T22:05:35.775Z,97.20
2019-05-15T22:08:03.760Z,96.90
2019-05-15T22:10:31.828Z,97.20
2019-05-15T22:13:03.679Z,96.90
2019-05-15T22:15:31.662Z,97.10
2019-05-15T22:17:59.828Z,97.10
2019-05-15T22:20:30.211Z,97.50
2019-05-15T22:22:59.607Z,97.80
2019-05-15T22:25:28.217Z,97.60
2019-05-15T22:27:57.881Z,97.40
2019-05-15T22:30:31.177Z,98.00
2019-05-15T22:32:59.151Z,98.70
2019-05-15T22:35:29.616Z,98.60
2019-05-15T22:37:58.427Z,98.40
2019-05-15T22:40:28.934Z,98.40
2019-05-15T22:43:02.523Z,98.30
2019-05-15T22:45:30.562Z,97.90
2019-05-15T22:47:59.727Z,98.00
2019-05-15T22:50:28.287Z,98.00
2019-05-15T22:53:19.728Z,98.00
2019-05-15T22:55:48.342Z,98.20
2019-05-15T22:58:28.695Z,97.80
2019-05-15T23:00:59.495Z,97.60
2019-05-15T23:03:33.967Z,97.80
2019-05-15T23:06:03.389Z,97.30
2019-05-15T23:08:32.724Z,97.90
2019-05-15T23:11:03.512Z,97.70
2019-05-15T23:13:31.515Z,98.10
2019-05-15T23:15:59.547Z,97.50
2019-05-15T23:18:40.042Z,98.30
2019-05-15T23:21:08.885Z,98.50
2019-05-15T23:23:38.018Z,98.10
2019-05-15T23:26:09.246Z,97.80
2019-05-15T23:28:38.654Z,99.20
2019-05-15T23:31:08.302Z,98.70
2019-05-15T23:36:51.093Z,99.10
2019-05-15T23:39:19.081Z,99.50
2019-05-15T23:41:52.128Z,99.20
2019-05-15T23:44:20.061Z,99.60
2019-05-15T23:46:57.374Z,99.90
2019-05-15T23:49:27.720Z,99.90
2019-05-15T23:52:00.507Z,99.90
2019-05-15T23:54:28.437Z,99.90
2019-05-15T23:56:58.420Z,99.90
2019-05-15T23:59:28.082Z,99.90
